Latest Weather Observations for Marion Reef

IDQ60801

Issued at 11:43 pm EST Wednesday 25 May 2022 (issued every 10 minutes, with the page automatically refreshed every 10 minutes)

About weather observations | Map of weather stations | Latest weather observations for QLD | Other Formats
Station Details ID: 200704 Name: MARION REEF Lat: -19.10 Lon: 152.39 Height: 2.0 m
Data from the previous 72 hours. | See also: Recent months for locations in Queensland
Date/Time
EST
Temp
°C
App
Temp
°C
Dew
Point
°C
Rel
Hum
%
Delta-T
°C
Wind Press
QNH
hPa
Press
MSL
hPa
Rain since
9am
mm
Dir  Spd
km/h
Gust
km/h
Spd
kts
Gust
kts
25/11:30pm 25.1 - - - - SSE 22 26 12 14 1011.7 1011.7 -
25/11:00pm 25.2 - - - - SE 20 24 11 13 1012.2 1012.2 -
25/10:30pm 25.1 - - - - SSE 22 24 12 13 1012.5 1012.5 -
25/10:00pm 25.1 - - - - SE 20 24 11 13 1012.8 1012.8 -
25/09:30pm 25.2 - - - - SSE 20 24 11 13 1012.9 1012.9 -
25/09:00pm 25.3 - - - - SSE 22 26 12 14 1013.1 1013.1 -
25/08:30pm 25.2 - - - - SSE 22 26 12 14 1013.2 1013.2 -
25/08:00pm 25.3 - - - - SSE 24 30 13 16 1013.1 1013.1 -
25/07:30pm 25.3 - - - - SSE 26 30 14 16 1012.7 1012.7 -
25/07:00pm 25.3 - - - - SSE 26 30 14 16 1012.6 1012.6 -
25/06:30pm 25.2 - - - - SSE 24 30 13 16 1012.3 1012.3 -
25/06:00pm 25.2 - - - - SSE 26 32 14 17 1011.9 1011.9 -
25/05:30pm 25.2 - - - - SSE 28 32 15 17 1011.9 1011.9 -
25/05:00pm 25.3 - - - - SSE 28 32 15 17 1011.7 1011.7 -
25/04:30pm 25.5 - - - - SSE 26 30 14 16 1011.5 1011.5 -
25/04:00pm 25.3 - - - - SSE 28 32 15 17 1011.4 1011.4 -
25/03:30pm 25.4 - - - - SSE 28 32 15 17 1011.1 1011.1 -
25/03:00pm 25.4 - - - - SSE 28 33 15 18 1011.3 1011.3 -
25/02:30pm 25.5 - - - - S 30 33 16 18 1011.2 1011.2 -
25/02:00pm 25.4 - - - - SSE 32 37 17 20 1011.3 1011.3 -
25/01:30pm 25.2 - - - - S 32 39 17 21 1011.5 1011.5 -
25/01:00pm 25.5 - - - - SSE 28 32 15 17 1011.8 1011.8 -
25/12:30pm 25.5 - - - - SSE 28 32 15 17 1012.1 1012.1 -
25/12:00pm 25.7 - - - - SSE 26 32 14 17 1012.5 1012.5 -
25/11:30am 25.5 - - - - SSE 28 33 15 18 1012.6 1012.6 -
25/11:00am 25.6 - - - - SSE 28 32 15 17 1013.1 1013.1 -
25/10:30am 25.4 - - - - SSE 26 30 14 16 1013.7 1013.7 -
25/10:00am 25.3 - - - - SSE 24 30 13 16 1014.3 1014.3 -
25/09:30am 25.4 - - - - SSE 26 32 14 17 1014.5 1014.5 -
25/09:00am 25.3 - - - - SSE 28 32 15 17 1014.3 1014.3 -
25/08:30am 25.3 - - - - SSE 28 33 15 18 1014.2 1014.2 -
25/08:00am 25.4 - - - - SSE 28 32 15 17 1014.0 1014.0 -
25/07:30am 25.1 - - - - SSE 28 32 15 17 1013.8 1013.8 -
25/07:00am 24.9 - - - - SSE 26 32 14 17 1013.6 1013.6 -
25/06:30am 25.0 - - - - SSE 30 33 16 18 1013.3 1013.3 -
25/06:00am 25.0 - - - - SSE 30 33 16 18 1012.9 1012.9 -
25/05:30am 24.9 - - - - SSE 30 33 16 18 1012.5 1012.5 -
25/05:00am 25.0 - - - - SSE 32 35 17 19 1012.2 1012.2 -
25/04:30am 24.9 - - - - SSE 26 33 14 18 1012.2 1012.2 -
25/04:00am 24.9 - - - - SSE 24 28 13 15 1012.3 1012.3 -
25/03:30am 25.0 - - - - SSE 24 30 13 16 1012.6 1012.6 -
25/03:00am 25.1 - - - - SSE 24 30 13 16 1012.6 1012.6 -
25/02:30am 24.9 - - - - SSE 26 33 14 18 1012.7 1012.7 -
25/02:00am 25.2 - - - - SSE 28 32 15 17 1012.7 1012.7 -
25/01:30am 24.9 - - - - SSE 28 32 15 17 1012.8 1012.8 -
25/01:00am 25.0 - - - - SSE 26 30 14 16 1013.0 1013.0 -
25/12:30am 25.1 - - - - SSE 28 33 15 18 1013.3 1013.3 -
25/12:00am 25.1 - - - - SE 28 33 15 18 1013.5 1013.5 -
 
Date/Time
EST
Temp
°C
App
Temp
°C
Dew
Point
°C
Rel
Hum
%
Delta-T
°C
Wind Press
QNH
hPa
Press
MSL
hPa
Rain since
9am
mm
Dir  Spd
km/h
Gust
km/h
Spd
kts
Gust
kts
24/11:30pm 25.1 - - - - SSE 32 37 17 20 1013.7 1013.7 -
24/11:00pm 25.1 - - - - SSE 30 35 16 19 1014.0 1014.0 -
24/10:30pm 24.8 - - - - SE 33 39 18 21 1014.2 1014.2 -
24/10:00pm 25.0 - - - - SSE 28 33 15 18 1014.1 1014.1 -
24/09:30pm 25.0 - - - - SSE 26 32 14 17 1014.2 1014.2 -
24/09:00pm 25.0 - - - - SE 28 32 15 17 1014.2 1014.2 -
24/08:30pm 25.1 - - - - SSE 28 33 15 18 1014.0 1014.0 -
24/08:00pm 25.3 - - - - SSE 30 35 16 19 1013.8 1013.8 -
24/07:30pm 25.0 - - - - S 28 35 15 19 1013.7 1013.7 -
24/07:00pm 25.1 - - - - S 30 33 16 18 1013.3 1013.3 -
24/06:30pm 24.7 - - - - S 33 41 18 22 1012.8 1012.8 -
24/06:00pm 25.3 - - - - S 32 35 17 19 1012.6 1012.6 -
24/05:30pm 24.9 - - - - S 26 30 14 16 1012.3 1012.3 -
24/05:00pm 24.9 - - - - S 28 32 15 17 1012.0 1012.0 -
24/04:30pm 25.0 - - - - SSW 28 32 15 17 1011.7 1011.7 -
24/04:00pm 25.2 - - - - SSW 24 28 13 15 1011.4 1011.4 -
24/03:30pm 25.2 - - - - S 22 26 12 14 1011.1 1011.1 -
24/03:00pm 25.1 - - - - SSW 19 24 10 13 1011.1 1011.1 -
24/02:30pm 25.1 - - - - S 20 26 11 14 1011.3 1011.3 -
24/02:00pm 25.4 - - - - SSW 17 22 9 12 1011.3 1011.3 -
24/01:30pm 25.4 - - - - SW 20 24 11 13 1011.5 1011.5 -
24/01:00pm 25.5 - - - - WSW 22 26 12 14 1011.8 1011.8 -
24/12:30pm 25.1 - - - - WSW 22 26 12 14 1012.1 1012.1 -
24/12:00pm 25.2 - - - - WSW 24 28 13 15 1012.6 1012.6 -
24/11:30am 25.2 - - - - WSW 19 22 10 12 1013.1 1013.1 -
24/11:00am 24.9 - - - - WSW 20 24 11 13 1013.5 1013.5 -
24/10:30am 24.8 - - - - WSW 20 24 11 13 1013.9 1013.9 -
24/10:00am 24.8 - - - - W 20 26 11 14 1014.3 1014.3 -
24/09:30am 24.7 - - - - WSW 19 26 10 14 1014.3 1014.3 -
24/09:00am 24.8 - - - - WSW 19 20 10 11 1014.2 1014.2 -
24/08:30am 24.7 - - - - WSW 22 28 12 15 1014.2 1014.2 -
24/08:00am 24.7 - - - - WSW 22 28 12 15 1014.2 1014.2 -
24/07:30am 24.7 - - - - WSW 24 26 13 14 1014.0 1014.0 -
24/07:00am 24.7 - - - - WSW 24 28 13 15 1013.7 1013.7 -
24/06:30am 24.9 - - - - WSW 26 30 14 16 1013.8 1013.8 -
24/06:00am 25.0 - - - - WSW 4 6 2 3 1013.5 1013.5 -
24/05:30am 25.1 - - - - CALM 0 6 0 3 1013.3 1013.3 -
24/05:00am 25.1 - - - - CALM 0 4 0 2 1013.1 1013.1 -
24/04:30am 25.0 - - - - CALM 0 4 0 2 1012.8 1012.8 -
24/04:00am 24.9 - - - - CALM 0 4 0 2 1012.6 1012.6 -
24/03:30am 25.0 - - - - CALM 0 6 0 3 1012.7 1012.7 -
24/03:00am 25.1 - - - - CALM 0 6 0 3 1012.9 1012.9 -
24/02:30am 25.2 - - - - SW 17 22 9 12 1013.0 1013.0 -
24/02:00am 25.1 - - - - SW 7 19 4 10 1013.4 1013.4 -
24/01:30am 25.0 - - - - SW 2 6 1 3 1013.5 1013.5 -
24/01:00am 25.2 - - - - SSW 17 19 9 10 1013.7 1013.7 -
24/12:30am 25.2 - - - - SSW 13 15 7 8 1013.9 1013.9 -
24/12:00am 25.2 - - - - S 11 13 6 7 1014.1 1014.1 -
 
Date/Time
EST
Temp
°C
App
Temp
°C
Dew
Point
°C
Rel
Hum
%
Delta-T
°C
Wind Press
QNH
hPa
Press
MSL
hPa
Rain since
9am
mm
Dir  Spd
km/h
Gust
km/h
Spd
kts
Gust
kts
23/11:30pm 25.2 - - - - SSW 11 13 6 7 1014.1 1014.1 -
23/11:00pm 25.1 - - - - S 11 13 6 7 1014.3 1014.3 -
23/10:30pm 25.2 - - - - S 11 15 6 8 1014.4 1014.4 -
23/10:00pm 25.2 - - - - S 15 17 8 9 1014.6 1014.6 -
23/09:30pm 25.1 - - - - SSE 15 19 8 10 1014.6 1014.6 -
23/09:00pm 25.0 - - - - SSE 17 20 9 11 1014.8 1014.8 -
23/08:30pm 25.1 - - - - SSE 17 19 9 10 1014.8 1014.8 -
23/08:00pm 25.1 - - - - SSE 17 19 9 10 1014.8 1014.8 -
23/07:30pm 25.0 - - - - SSE 20 20 11 11 1014.8 1014.8 -
23/07:00pm 24.9 - - - - SSE 20 24 11 13 1014.4 1014.4 -
23/06:30pm 24.9 - - - - SSE 24 28 13 15 1014.2 1014.2 -
23/06:00pm 24.9 - - - - SSE 26 30 14 16 1013.9 1013.9 -
23/05:30pm 24.9 - - - - SSE 26 32 14 17 1013.6 1013.6 -
23/05:00pm 25.2 - - - - SSE 24 28 13 15 1013.2 1013.2 -
23/04:30pm 25.2 - - - - SSE 24 28 13 15 1013.1 1013.1 -
23/04:00pm 25.0 - - - - SSE 22 26 12 14 1012.6 1012.6 -
23/03:30pm 25.0 - - - - SSE 24 28 13 15 1012.5 1012.5 -
23/03:00pm 25.7 - - - - SE 20 24 11 13 1012.4 1012.4 -
23/02:30pm 25.4 - - - - SE 22 26 12 14 1012.4 1012.4 -
23/02:00pm 25.0 - - - - SE 26 35 14 19 1012.4 1012.4 -
23/01:30pm 25.2 - - - - SE 19 24 10 13 1012.7 1012.7 -
23/01:00pm 24.6 - - - - SE 30 35 16 19 1013.0 1013.0 -
23/12:30pm 25.7 - - - - SE 20 26 11 14 1013.3 1013.3 -
23/12:00pm 25.6 - - - - SE 24 30 13 16 1013.5 1013.5 -
23/11:30am 25.8 - - - - SSE 22 26 12 14 1013.8 1013.8 -
23/11:00am 25.7 - - - - SSE 24 26 13 14 1014.0 1014.0 -
23/10:30am 25.9 - - - - SSE 22 26 12 14 1014.4 1014.4 -
23/10:00am 25.7 - - - - SE 22 26 12 14 1014.7 1014.7 -
23/09:30am 25.7 - - - - SSE 24 26 13 14 1014.9 1014.9 -
23/09:00am 25.8 - - - - SE 22 26 12 14 1014.9 1014.9 -
23/08:30am 25.6 - - - - SE 24 28 13 15 1014.6 1014.6 -
23/08:00am 25.4 - - - - SE 26 32 14 17 1014.3 1014.3 -
23/07:30am 25.5 - - - - SE 28 32 15 17 1013.9 1013.9 -
23/07:00am 25.3 - - - - SE 26 30 14 16 1013.6 1013.6 -
23/06:30am 25.4 - - - - SE 30 33 16 18 1013.3 1013.3 -
23/06:00am 25.3 - - - - SE 26 32 14 17 1012.8 1012.8 -
23/05:30am 25.2 - - - - SE 26 30 14 16 1012.6 1012.6 -
23/05:00am 25.1 - - - - SE 28 32 15 17 1012.4 1012.4 -
23/04:30am 25.4 - - - - SE 30 32 16 17 1012.1 1012.1 -
23/04:00am 25.3 - - - - SE 30 35 16 19 1012.0 1012.0 -
23/03:30am 25.4 - - - - SE 30 35 16 19 1011.9 1011.9 -
23/03:00am 25.3 - - - - SE 32 35 17 19 1012.0 1012.0 -
23/02:30am 25.3 - - - - SE 30 33 16 18 1012.2 1012.2 -
23/02:00am 25.3 - - - - SE 28 33 15 18 1012.4 1012.4 -
23/01:30am 25.2 - - - - SE 30 33 16 18 1012.5 1012.5 -
23/01:00am 25.4 - - - - SSE 32 37 17 20 1012.9 1012.9 -
23/12:30am 24.8 - - - - SSE 33 44 18 24 1013.0 1013.0 -
23/12:00am 24.8 - - - - SSE 32 39 17 21 1013.0 1013.0 -

Other formats

Comma delimited format used in spreadsheet applications
http://www.bom.gov.au/fwo/IDQ60801/IDQ60801.94298.axf

JavaScript Object Notation format (JSON) in row-major order
http://www.bom.gov.au/fwo/IDQ60801/IDQ60801.94298.json

Data quality

Most of these data are generated automatically and are frequently updated. Quality checks on data are not normally performed. It is possible for incorrect values to appear. Refer to information at About Latest Weather Observations and please check the disclaimer before using these data.